Time;durP1;ratioP1;P1;durP2;ratioP2;P2;SDS_P1;SDS_P2;PMS_P1;PMS_P2;Temp;Humidity;BMP_temperature;BMP_pressure;BME280_temperature;BME280_humidity;BME280_pressure;Samples;Min_cycle;Max_cycle;Signal;HPM_P1;HPM_P2
2021/12/13 00:01:38;;;;;;;17.25;8.82;;;7.60;99.90;;;;;;5034433;28;20084;-77
2021/12/13 00:04:16;;;;;;;15.25;9.80;;;7.50;99.90;;;;;;5035829;28;20032;-73
2021/12/13 00:06:50;;;;;;;16.95;9.05;;;7.50;99.90;;;;;;5034612;28;20037;-73
2021/12/13 00:09:21;;;;;;;14.05;7.75;;;7.50;99.90;;;;;;5035613;28;20021;-75
2021/12/13 00:11:51;;;;;;;13.95;8.02;;;7.50;99.90;;;;;;5035507;28;20036;-72
2021/12/13 00:14:20;;;;;;;11.70;6.78;;;7.50;99.90;;;;;;5034931;28;20108;-73
2021/12/13 00:16:56;;;;;;;11.27;7.03;;;7.50;99.90;;;;;;5034005;28;20434;-74
2021/12/13 00:19:30;;;;;;;15.52;7.78;;;7.50;99.90;;;;;;5034992;28;20021;-74
2021/12/13 00:22:04;;;;;;;12.20;7.50;;;7.60;99.90;;;;;;5033502;28;20105;-73
2021/12/13 00:24:33;;;;;;;12.75;7.60;;;7.60;99.90;;;;;;5034857;28;20025;-73
2021/12/13 00:27:05;;;;;;;17.05;7.97;;;7.60;99.90;;;;;;5034972;28;20045;-74
2021/12/13 00:29:48;;;;;;;15.50;8.35;;;7.60;99.90;;;;;;5032879;28;20068;-73
2021/12/13 00:32:19;;;;;;;12.55;8.30;;;7.60;99.90;;;;;;5035285;28;20120;-74
2021/12/13 00:34:57;;;;;;;10.43;7.07;;;7.60;99.90;;;;;;5035788;28;20474;-74
2021/12/13 00:37:32;;;;;;;8.18;5.25;;;7.60;99.90;;;;;;5036714;28;20041;-74
2021/12/13 00:40:33;;;;;;;34.80;6.35;;;7.60;99.90;;;;;;5036212;28;20021;-73
2021/12/13 00:43:07;;;;;;;7.97;5.30;;;7.60;99.90;;;;;;5028734;28;20105;-74
2021/12/13 00:45:39;;;;;;;10.13;5.85;;;7.60;99.90;;;;;;5033642;28;20374;-75
2021/12/13 00:48:07;;;;;;;8.80;5.32;;;7.60;99.90;;;;;;5034754;28;20026;-73
2021/12/13 00:50:47;;;;;;;9.60;5.63;;;7.70;99.90;;;;;;5033953;28;20041;-72
2021/12/13 00:53:18;;;;;;;8.80;5.55;;;7.70;99.90;;;;;;5032947;28;20045;-76
2021/12/13 00:55:46;;;;;;;7.93;4.45;;;7.70;99.90;;;;;;5034709;28;20380;-76
2021/12/13 00:58:22;;;;;;;9.23;5.35;;;7.70;99.90;;;;;;5034010;28;20559;-74
2021/12/13 01:01:08;;;;;;;8.65;5.20;;;7.70;99.90;;;;;;5032561;28;20033;-74
2021/12/13 01:03:49;;;;;;;10.73;5.25;;;7.70;99.90;;;;;;5034092;28;20030;-74
2021/12/13 01:07:12;;;;;;;12.48;5.53;;;7.70;99.90;;;;;;5033251;28;20037;-77
2021/12/13 01:10:19;;;;;;;8.65;5.53;;;7.70;99.90;;;;;;5033829;28;20057;-75
2021/12/13 01:12:51;;;;;;;9.93;6.07;;;7.80;99.90;;;;;;5033599;28;20025;-76
2021/12/13 01:15:29;;;;;;;;;;;7.80;99.90;;;;;;5033864;28;20027;-75
2021/12/13 01:18:19;;;;;;;10.48;5.93;;;7.80;99.90;;;;;;5033562;28;19963;-73
2021/12/13 01:21:01;;;;;;;9.43;5.57;;;7.80;99.90;;;;;;5033084;28;20021;-74
2021/12/13 01:23:49;;;;;;;7.23;5.07;;;7.80;99.90;;;;;;5034153;28;20030;-76
2021/12/13 01:26:36;;;;;;;9.98;5.35;;;7.80;99.90;;;;;;5033749;28;20033;-73
2021/12/13 01:29:13;;;;;;;12.77;6.07;;;7.80;99.90;;;;;;5033018;28;20040;-79
2021/12/13 01:31:46;;;;;;;13.05;5.82;;;7.80;99.90;;;;;;5033364;28;20033;-74
2021/12/13 01:34:13;;;;;;;10.27;6.18;;;7.90;99.90;;;;;;5033389;28;20580;-74
2021/12/13 01:36:57;;;;;;;11.20;5.93;;;7.90;99.90;;;;;;5031550;28;20033;-74
2021/12/13 01:39:27;;;;;;;12.85;5.63;;;7.90;99.90;;;;;;5033187;28;20071;-73
2021/12/13 01:41:59;;;;;;;14.63;6.60;;;7.90;99.90;;;;;;5033089;28;20018;-74
2021/12/13 01:44:29;;;;;;;9.93;6.55;;;8.00;99.90;;;;;;5033517;28;20377;-74
2021/12/13 01:47:14;;;;;;;14.93;7.00;;;8.00;99.90;;;;;;5032701;28;20041;-73
2021/12/13 01:49:43;;;;;;;11.82;6.30;;;8.00;99.90;;;;;;5032477;28;20543;-74
2021/12/13 01:52:24;;;;;;;13.48;7.00;;;8.00;99.90;;;;;;5031983;28;20041;-72
2021/12/13 01:54:51;;;;;;;23.58;7.60;;;8.00;99.90;;;;;;5029749;28;20056;-76
2021/12/13 01:57:26;;;;;;;13.23;7.28;;;8.00;99.90;;;;;;5028993;28;20096;-76
2021/12/13 02:00:08;;;;;;;12.85;7.15;;;8.00;99.90;;;;;;5030930;28;20021;-77
2021/12/13 02:02:33;;;;;;;13.00;6.72;;;8.00;99.90;;;;;;5031243;28;20021;-77
2021/12/13 02:05:05;;;;;;;17.77;7.95;;;8.00;99.90;;;;;;5030748;28;20028;-77
2021/12/13 02:07:50;;;;;;;12.48;7.93;;;8.00;99.90;;;;;;5031670;28;20028;-78
2021/12/13 02:10:32;;;;;;;17.58;7.10;;;8.00;99.90;;;;;;5032094;28;20456;-78
2021/12/13 02:13:02;;;;;;;;;;;8.00;99.90;;;;;;5033354;28;20040;-77
2021/12/13 02:18:19;;;;;;;12.40;7.43;;;8.00;99.90;;;;;;5030767;28;20037;-73
2021/12/13 02:21:05;;;;;;;14.02;6.97;;;8.00;99.90;;;;;;5032145;28;20025;-76
2021/12/13 02:23:37;;;;;;;12.60;8.13;;;8.00;99.90;;;;;;5032780;28;20033;-78
2021/12/13 02:26:04;;;;;;;14.10;7.85;;;8.00;99.90;;;;;;5032496;28;20517;-75
2021/12/13 02:28:34;;;;;;;13.25;7.20;;;8.00;99.90;;;;;;5032543;28;20381;-76
2021/12/13 02:31:05;;;;;;;12.20;7.20;;;8.00;99.90;;;;;;5032926;28;20096;-76
2021/12/13 02:33:33;;;;;;;11.95;6.00;;;7.90;99.90;;;;;;5032474;28;20465;-75
2021/12/13 02:36:13;;;;;;;12.23;6.57;;;7.90;99.90;;;;;;5032367;28;20034;-75
2021/12/13 02:38:41;;;;;;;11.07;7.00;;;7.90;99.90;;;;;;5024642;28;20018;-78
2021/12/13 02:41:08;;;;;;;9.05;5.35;;;7.90;99.90;;;;;;5032017;28;20026;-75
2021/12/13 02:43:41;;;;;;;6.85;4.10;;;7.80;99.90;;;;;;5030883;28;20389;-79
2021/12/13 02:46:07;;;;;;;10.07;4.57;;;7.80;99.90;;;;;;5030434;28;20120;-77
2021/12/13 02:48:43;;;;;;;4.47;3.80;;;7.80;99.90;;;;;;5012914;28;20164;-77
2021/12/13 02:51:16;;;;;;;8.15;4.78;;;7.80;99.90;;;;;;5012531;28;20034;-76
2021/12/13 02:53:55;;;;;;;6.45;4.25;;;7.80;99.90;;;;;;5015621;28;20588;-79
2021/12/13 02:56:27;;;;;;;9.00;4.93;;;7.90;99.90;;;;;;5017421;28;20037;-75
2021/12/13 02:58:53;;;;;;;;;;;7.80;99.90;;;;;;5021894;28;20485;-76
2021/12/13 03:01:29;;;;;;;9.93;5.53;;;7.80;99.90;;;;;;5036097;28;19916;-77
2021/12/13 03:03:59;;;;;;;8.43;4.80;;;7.80;99.90;;;;;;5036130;28;20028;-74
2021/12/13 03:06:29;;;;;;;13.18;5.65;;;7.80;99.90;;;;;;5036246;28;20033;-74
2021/12/13 03:09:03;;;;;;;7.90;3.70;;;7.80;99.90;;;;;;5035818;28;20014;-75
2021/12/13 03:11:33;;;;;;;7.40;4.03;;;7.80;99.90;;;;;;5035047;28;20042;-79
2021/12/13 03:14:22;;;;;;;4.97;3.70;;;7.80;99.90;;;;;;5035709;28;20030;-74
2021/12/13 03:17:00;;;;;;;5.15;3.33;;;7.80;99.90;;;;;;5035680;28;20030;-73
2021/12/13 03:19:38;;;;;;;5.68;3.33;;;7.80;99.90;;;;;;5035503;28;20022;-77
2021/12/13 03:22:57;;;;;;;5.25;3.38;;;7.90;99.90;;;;;;5035846;28;20037;-73
2021/12/13 03:25:41;;;;;;;6.15;3.97;;;7.80;99.90;;;;;;4955982;29;20122;-75
2021/12/13 03:28:28;;;;;;;5.47;3.67;;;7.90;99.90;;;;;;5036063;28;20083;-72
2021/12/13 03:31:07;;;;;;;6.13;3.47;;;7.90;99.90;;;;;;5035531;28;20035;-77
2021/12/13 03:33:41;;;;;;;5.45;3.30;;;7.90;99.90;;;;;;5035632;28;20428;-73
2021/12/13 03:36:17;;;;;;;5.97;3.63;;;7.90;99.90;;;;;;5035585;28;20100;-78
2021/12/13 03:38:50;;;;;;;7.00;3.92;;;7.90;99.90;;;;;;5035730;28;20027;-75
2021/12/13 03:41:20;;;;;;;10.05;4.60;;;7.90;99.90;;;;;;5035089;28;20029;-77
2021/12/13 03:44:00;;;;;;;6.90;3.85;;;7.90;99.90;;;;;;5035235;28;20026;-76
2021/12/13 03:46:29;;;;;;;6.40;3.75;;;7.90;99.90;;;;;;5033527;28;20021;-77
2021/12/13 03:48:57;;;;;;;6.55;3.20;;;7.90;99.90;;;;;;5035143;28;20036;-75
2021/12/13 03:51:28;;;;;;;7.28;3.42;;;7.90;99.90;;;;;;5035029;28;20567;-76
2021/12/13 03:53:56;;;;;;;4.20;3.10;;;7.90;99.90;;;;;;5034874;28;20090;-78
2021/12/13 03:56:28;;;;;;;5.53;3.38;;;7.90;99.90;;;;;;5032926;28;20033;-73
2021/12/13 03:59:00;;;;;;;5.45;3.53;;;7.90;99.90;;;;;;5034773;28;20104;-74
2021/12/13 04:01:42;;;;;;;6.25;3.53;;;7.90;99.90;;;;;;5034360;28;20022;-74
2021/12/13 04:04:15;;;;;;;7.28;4.15;;;7.90;99.90;;;;;;5027509;28;20486;-74
2021/12/13 04:06:57;;;;;;;8.85;4.53;;;7.80;99.90;;;;;;5015356;28;20029;-79
2021/12/13 04:09:25;;;;;;;5.53;3.90;;;7.80;99.90;;;;;;5015329;28;20029;-73
2021/12/13 04:11:56;;;;;;;6.47;3.40;;;7.80;99.90;;;;;;5015105;28;20041;-78
2021/12/13 04:14:30;;;;;;;6.60;3.67;;;7.80;99.90;;;;;;5015422;28;20024;-74
2021/12/13 04:17:33;;;;;;;3.67;2.78;;;7.80;99.90;;;;;;5015162;28;20084;-73
2021/12/13 04:20:00;;;;;;;5.35;3.40;;;7.80;99.90;;;;;;5013682;28;20116;-73
2021/12/13 04:22:31;;;;;;;6.72;4.15;;;7.70;99.90;;;;;;5014646;28;20363;-75
2021/12/13 04:25:21;;;;;;;8.48;3.63;;;7.70;99.90;;;;;;5015072;28;20022;-75
2021/12/13 04:28:16;;;;;;;5.32;3.58;;;7.60;99.90;;;;;;5014969;28;20034;-78
2021/12/13 04:30:57;;;;;;;8.35;3.58;;;7.60;99.90;;;;;;5014997;28;20095;-75
2021/12/13 04:33:36;;;;;;;4.70;3.33;;;7.60;99.90;;;;;;5030703;28;20545;-74
2021/12/13 04:36:33;;;;;;;12.00;3.70;;;7.60;99.90;;;;;;5034558;28;20033;-75
2021/12/13 04:39:13;;;;;;;6.00;3.38;;;7.60;99.90;;;;;;5030592;28;20102;-74
2021/12/13 04:41:53;;;;;;;5.85;3.30;;;7.50;99.90;;;;;;5032652;28;20048;-74
2021/12/13 04:44:39;;;;;;;4.65;2.92;;;7.60;99.90;;;;;;5033963;28;20017;-78
2021/12/13 04:47:08;;;;;;;9.30;3.45;;;7.60;99.90;;;;;;5034496;28;20029;-77
2021/12/13 04:49:37;;;;;;;4.57;3.00;;;7.60;99.90;;;;;;5033221;28;20548;-73
2021/12/13 04:52:11;;;;;;;6.18;2.78;;;7.60;99.90;;;;;;5034029;28;20092;-74
2021/12/13 04:54:41;;;;;;;4.25;3.25;;;7.60;99.90;;;;;;5033952;28;20018;-75
2021/12/13 04:57:07;;;;;;;5.95;3.50;;;7.60;99.90;;;;;;5032310;28;20029;-75
2021/12/13 04:59:34;;;;;;;5.38;3.45;;;7.60;99.90;;;;;;5034189;28;20025;-74
2021/12/13 05:02:04;;;;;;;5.80;3.05;;;7.60;99.90;;;;;;5034278;28;20091;-76
2021/12/13 05:04:30;;;;;;;4.72;3.00;;;7.60;99.90;;;;;;5033979;28;20060;-76
2021/12/13 05:07:00;;;;;;;5.47;2.65;;;7.60;99.90;;;;;;5033898;28;20025;-75
2021/12/13 05:09:27;;;;;;;3.63;2.35;;;7.60;99.90;;;;;;5033952;28;20112;-79
2021/12/13 05:12:09;;;;;;;3.22;2.33;;;7.60;99.90;;;;;;5034210;28;20026;-74
2021/12/13 05:14:39;;;;;;;5.35;2.90;;;7.60;99.90;;;;;;5033632;28;20032;-73
2021/12/13 05:17:18;;;;;;;5.38;2.65;;;7.60;99.90;;;;;;5033390;28;20029;-74
2021/12/13 05:19:58;;;;;;;5.68;3.17;;;7.60;99.90;;;;;;5033868;28;20029;-75
2021/12/13 05:22:24;;;;;;;5.57;3.83;;;7.70;99.90;;;;;;5033801;28;20014;-80
2021/12/13 05:24:55;;;;;;;6.72;4.82;;;7.70;99.90;;;;;;5033542;28;20035;-78
2021/12/13 05:27:37;;;;;;;4.55;3.90;;;7.70;99.90;;;;;;5014000;28;20022;-76
2021/12/13 05:30:12;;;;;;;5.32;3.53;;;7.80;99.90;;;;;;5013281;28;20375;-77
2021/12/13 05:33:03;;;;;;;4.68;3.30;;;7.80;99.90;;;;;;5013350;28;20033;-76
2021/12/13 05:35:36;;;;;;;4.15;2.92;;;7.80;99.90;;;;;;5008285;28;20041;-74
2021/12/13 05:38:06;;;;;;;5.05;2.58;;;7.80;99.90;;;;;;5013414;28;20032;-78
2021/12/13 05:40:39;;;;;;;4.90;2.90;;;7.90;99.90;;;;;;5013269;28;20108;-74
2021/12/13 05:43:23;;;;;;;4.20;2.60;;;7.90;99.90;;;;;;5013219;28;20021;-72
2021/12/13 05:46:14;;;;;;;3.67;2.50;;;7.90;99.90;;;;;;5013264;28;20314;-73
2021/12/13 05:48:42;;;;;;;7.15;3.10;;;7.90;99.90;;;;;;5013298;28;20026;-74
2021/12/13 05:51:27;;;;;;;4.95;3.22;;;8.00;99.90;;;;;;5013047;28;20120;-78
2021/12/13 05:54:10;;;;;;;4.93;3.05;;;8.00;99.90;;;;;;5027284;28;20088;-78
2021/12/13 05:56:47;;;;;;;5.53;3.42;;;7.90;99.90;;;;;;5018790;28;20053;-80
2021/12/13 05:59:21;;;;;;;5.18;3.40;;;8.00;99.90;;;;;;5013245;28;20037;-73
2021/12/13 06:02:13;;;;;;;4.15;3.40;;;8.00;99.90;;;;;;5013160;28;20446;-82
2021/12/13 06:04:39;;;;;;;;;;;8.00;99.90;;;;;;5014040;28;20025;-83
2021/12/13 06:07:33;;;;;;;4.70;2.85;;;8.00;99.90;;;;;;5013094;28;20286;-82
2021/12/13 06:10:16;;;;;;;3.88;2.65;;;8.10;99.90;;;;;;5012881;28;20037;-81
2021/12/13 06:13:04;;;;;;;8.45;3.03;;;8.10;99.90;;;;;;5013067;28;20022;-81
2021/12/13 06:15:40;;;;;;;3.42;2.47;;;8.10;99.90;;;;;;5012561;28;20026;-81
2021/12/13 06:18:18;;;;;;;6.82;4.28;;;8.00;99.90;;;;;;5011245;28;20422;-81
2021/12/13 06:21:24;;;;;;;11.02;3.63;;;8.00;99.90;;;;;;5013050;28;20026;-82
2021/12/13 06:23:50;;;;;;;4.93;2.70;;;7.90;99.90;;;;;;5016060;28;20017;-74
2021/12/13 06:26:15;;;;;;;5.00;2.78;;;7.90;99.90;;;;;;5031694;28;20033;-78
2021/12/13 06:28:53;;;;;;;9.15;2.92;;;7.90;99.90;;;;;;5031856;28;20022;-74
2021/12/13 06:31:21;;;;;;;7.32;3.00;;;7.90;99.90;;;;;;5031832;28;20105;-82
2021/12/13 06:33:57;;;;;;;6.05;3.00;;;7.90;99.90;;;;;;5032603;28;20044;-80
2021/12/13 06:36:34;;;;;;;8.50;4.63;;;7.90;99.90;;;;;;5032631;28;20064;-78
2021/12/13 06:39:01;;;;;;;8.27;3.30;;;8.00;99.90;;;;;;5032031;28;20029;-82
2021/12/13 06:41:26;;;;;;;3.63;2.60;;;8.00;99.90;;;;;;5032513;28;20030;-83
2021/12/13 06:43:52;;;;;;;5.88;2.90;;;8.00;99.90;;;;;;5032699;28;20025;-81
2021/12/13 06:46:23;;;;;;;3.03;2.30;;;8.00;99.90;;;;;;5032717;28;20029;-80
2021/12/13 06:48:59;;;;;;;8.57;3.13;;;8.00;99.90;;;;;;5032592;28;20056;-83
2021/12/13 06:51:52;;;;;;;3.50;2.50;;;8.10;99.90;;;;;;5032296;28;20042;-81
2021/12/13 06:54:33;;;;;;;6.65;3.10;;;8.00;99.90;;;;;;5025636;28;20038;-82
2021/12/13 06:57:08;;;;;;;4.82;2.67;;;8.10;99.90;;;;;;5013438;28;20026;-82
2021/12/13 06:59:48;;;;;;;6.68;3.13;;;8.10;99.90;;;;;;5012067;28;20026;-82
2021/12/13 07:02:41;;;;;;;9.15;3.30;;;8.10;99.90;;;;;;5012551;28;20486;-82
2021/12/13 07:05:28;;;;;;;3.67;2.50;;;8.20;99.90;;;;;;5012545;28;20056;-83
2021/12/13 07:08:02;;;;;;;4.78;2.97;;;8.20;99.90;;;;;;5012570;28;20097;-83
2021/12/13 07:10:55;;;;;;;4.55;3.17;;;8.20;99.90;;;;;;5012727;28;20038;-81
2021/12/13 07:13:59;;;;;;;11.88;7.70;;;8.20;99.90;;;;;;4982676;28;20034;-82
2021/12/13 07:16:32;;;;;;;8.13;4.80;;;8.20;99.90;;;;;;5000986;28;20483;-82
2021/12/13 07:19:05;;;;;;;13.35;7.75;;;8.20;99.90;;;;;;5012461;28;20022;-83
2021/12/13 07:21:47;;;;;;;15.18;5.22;;;8.20;99.90;;;;;;5027286;28;20076;-82
2021/12/13 07:24:16;;;;;;;6.68;4.47;;;8.20;99.90;;;;;;5031061;28;20443;-82
2021/12/13 07:26:53;;;;;;;5.95;4.43;;;8.20;99.90;;;;;;5031939;28;20546;-80
2021/12/13 07:29:18;;;;;;;8.57;4.70;;;8.10;99.90;;;;;;5021380;28;20520;-83
2021/12/13 07:32:02;;;;;;;16.75;5.55;;;8.10;99.90;;;;;;5012326;28;20057;-83
2021/12/13 07:34:28;;;;;;;11.63;5.00;;;8.10;99.90;;;;;;5012302;28;20080;-79
2021/12/13 07:36:57;;;;;;;28.48;5.88;;;8.10;99.90;;;;;;5011944;28;20026;-81
2021/12/13 07:39:28;;;;;;;17.17;6.03;;;8.10;99.90;;;;;;5014920;28;20037;-82
2021/12/13 07:41:59;;;;;;;24.15;6.65;;;8.10;99.90;;;;;;5015820;28;20490;-82
2021/12/13 07:44:30;;;;;;;9.20;5.63;;;8.10;99.90;;;;;;5017416;28;20018;-81
2021/12/13 07:47:23;;;;;;;17.38;7.00;;;8.10;99.90;;;;;;5036021;28;20029;-82
2021/12/13 07:49:52;;;;;;;19.90;7.05;;;8.10;99.90;;;;;;5034931;28;20389;-79
2021/12/13 07:52:29;;;;;;;13.35;6.95;;;8.20;99.90;;;;;;5035399;28;20068;-82
2021/12/13 07:54:56;;;;;;;24.48;8.40;;;8.20;99.90;;;;;;5034119;28;20029;-75
2021/12/13 07:57:28;;;;;;;20.38;8.80;;;8.20;99.90;;;;;;5033969;28;20025;-81
2021/12/13 07:59:54;;;;;;;26.13;9.52;;;8.20;99.90;;;;;;5035223;28;20122;-81
2021/12/13 08:02:30;;;;;;;28.00;8.15;;;8.20;99.90;;;;;;5034614;28;20099;-82
2021/12/13 08:05:08;;;;;;;25.85;9.43;;;8.30;99.90;;;;;;5034498;28;20390;-77
2021/12/13 08:07:54;;;;;;;52.97;12.45;;;8.30;99.90;;;;;;5034790;28;20036;-82
2021/12/13 08:10:39;;;;;;;59.03;17.08;;;8.40;99.90;;;;;;5034521;28;20033;-81
2021/12/13 08:13:13;;;;;;;41.78;14.07;;;8.40;99.90;;;;;;5035039;28;20024;-80
2021/12/13 08:15:55;;;;;;;34.78;11.95;;;8.50;99.90;;;;;;5034835;28;20033;-80
2021/12/13 08:18:23;;;;;;;27.23;10.40;;;8.60;99.90;;;;;;5018497;28;20551;-81
2021/12/13 08:21:09;;;;;;;28.88;9.85;;;8.70;99.90;;;;;;5015346;28;20029;-74
2021/12/13 08:23:41;;;;;;;25.95;10.27;;;8.70;99.90;;;;;;5015146;28;20029;-73
2021/12/13 08:26:11;;;;;;;51.95;11.93;;;8.80;99.90;;;;;;5014984;28;20386;-79
2021/12/13 08:28:42;;;;;;;83.32;16.10;;;8.90;99.90;;;;;;5015113;28;20168;-76
2021/12/13 08:31:17;;;;;;;100.72;17.70;;;9.00;99.90;;;;;;5014943;28;20038;-82
2021/12/13 08:33:46;;;;;;;159.60;22.15;;;9.00;99.90;;;;;;5014974;28;20038;-79
2021/12/13 08:36:13;;;;;;;151.98;24.48;;;9.10;99.90;;;;;;5019689;28;20032;-77
2021/12/13 08:38:45;;;;;;;133.15;20.27;;;9.20;99.90;;;;;;5034590;28;20021;-74
2021/12/13 08:41:39;;;;;;;115.22;19.17;;;9.30;99.90;;;;;;5034229;28;20029;-74
2021/12/13 08:44:14;;;;;;;121.25;17.10;;;9.50;99.90;;;;;;5034507;28;20564;-82
2021/12/13 08:46:55;;;;;;;61.90;13.15;;;9.70;99.90;;;;;;5018283;28;20077;-73
2021/12/13 08:49:29;;;;;;;39.10;7.65;;;10.00;99.90;;;;;;5033501;28;20037;-80
2021/12/13 08:51:58;;;;;;;25.20;7.00;;;10.30;99.90;;;;;;5032658;28;20087;-80
2021/12/13 08:54:44;;;;;;;13.82;7.50;;;10.50;99.90;;;;;;5033238;28;20025;-79
2021/12/13 08:57:27;;;;;;;22.30;8.38;;;10.70;99.90;;;;;;5031872;28;20056;-75
2021/12/13 08:59:54;;;;;;;19.10;7.82;;;10.80;99.90;;;;;;5032785;28;20083;-80
2021/12/13 09:02:21;;;;;;;26.83;8.30;;;11.00;99.90;;;;;;5033526;28;20093;-78
2021/12/13 09:05:09;;;;;;;25.77;9.02;;;11.10;99.90;;;;;;5033724;28;20034;-75
2021/12/13 09:07:35;;;;;;;26.20;8.60;;;11.40;99.90;;;;;;5033507;28;20018;-80
2021/12/13 09:10:01;;;;;;;28.77;8.07;;;11.60;99.90;;;;;;5032658;28;20021;-73
2021/12/13 09:12:34;;;;;;;18.90;8.32;;;11.90;99.90;;;;;;5031830;28;20703;-80
2021/12/13 09:15:04;;;;;;;19.02;7.15;;;12.20;99.90;;;;;;5032675;28;20017;-79
2021/12/13 09:17:38;;;;;;;20.08;7.05;;;12.30;99.90;;;;;;5033436;28;20389;-81
2021/12/13 09:20:15;;;;;;;15.13;6.35;;;12.20;99.90;;;;;;5031593;28;20029;-81
2021/12/13 09:22:46;;;;;;;22.50;6.88;;;12.10;99.90;;;;;;5033029;28;20025;-80
2021/12/13 09:25:30;;;;;;;13.00;5.90;;;12.00;99.90;;;;;;5033017;28;20025;-78
2021/12/13 09:28:01;;;;;;;36.50;6.68;;;12.10;99.90;;;;;;5031482;28;20026;-80
2021/12/13 09:30:58;;;;;;;26.65;5.88;;;12.10;99.90;;;;;;5032498;28;20029;-75
2021/12/13 09:33:31;;;;;;;16.25;6.32;;;12.20;99.90;;;;;;5001445;28;20076;-83
2021/12/13 09:36:10;;;;;;;19.83;5.88;;;12.30;99.90;;;;;;5030136;28;20079;-81
2021/12/13 09:39:01;;;;;;;19.60;6.10;;;12.40;99.90;;;;;;5028312;28;20032;-86
2021/12/13 09:41:48;;;;;;;18.35;6.43;;;12.50;99.90;;;;;;5027970;28;20025;-80
2021/12/13 09:44:37;;;;;;;16.30;6.18;;;12.60;99.90;;;;;;5030628;28;20071;-77
2021/12/13 09:47:09;;;;;;;11.65;6.72;;;12.60;99.90;;;;;;5031043;28;20113;-74
2021/12/13 09:50:04;;;;;;;20.88;8.23;;;12.60;99.90;;;;;;5031494;28;20033;-80
2021/12/13 09:52:36;;;;;;;20.92;7.97;;;12.60;99.90;;;;;;5019485;28;20052;-78
2021/12/13 09:55:12;;;;;;;29.58;8.27;;;12.60;99.90;;;;;;5028996;28;20021;-79
2021/12/13 09:57:50;;;;;;;32.38;9.35;;;12.60;99.90;;;;;;5031692;28;20484;-81
2021/12/13 10:00:35;;;;;;;29.85;9.07;;;12.60;99.90;;;;;;5031986;28;20135;-82
2021/12/13 10:03:12;;;;;;;23.58;8.70;;;12.60;99.90;;;;;;5031271;28;20019;-79
2021/12/13 10:05:42;;;;;;;25.52;8.63;;;12.60;99.90;;;;;;5032691;28;20109;-82
2021/12/13 10:08:16;;;;;;;23.63;9.90;;;12.70;99.90;;;;;;5032719;28;20029;-80
2021/12/13 10:10:53;;;;;;;23.42;8.32;;;12.60;99.90;;;;;;5032742;28;20029;-83
2021/12/13 10:13:27;;;;;;;19.75;7.97;;;12.50;99.90;;;;;;5031541;28;20035;-84
2021/12/13 10:16:03;;;;;;;38.80;11.02;;;12.40;99.90;;;;;;5030771;28;20517;-85
2021/12/13 10:18:36;;;;;;;33.30;9.98;;;12.40;99.90;;;;;;5031354;28;20037;-83
2021/12/13 10:21:09;;;;;;;47.40;10.43;;;12.30;99.90;;;;;;5030354;28;20473;-79
2021/12/13 10:23:42;;;;;;;37.40;10.57;;;12.30;99.90;;;;;;5029473;28;20378;-79
2021/12/13 10:26:10;;;;;;;36.22;10.40;;;12.30;99.90;;;;;;5028506;28;20022;-79
2021/12/13 10:28:41;;;;;;;40.95;10.65;;;12.30;99.90;;;;;;5027926;28;20589;-76
2021/12/13 10:31:22;;;;;;;43.72;10.05;;;12.30;99.90;;;;;;5031064;28;20120;-82
2021/12/13 10:33:48;;;;;;;34.50;8.63;;;12.30;99.90;;;;;;5015113;28;20402;-80
2021/12/13 10:36:15;;;;;;;54.20;9.57;;;12.30;99.90;;;;;;5013664;28;20273;-81
2021/12/13 10:38:51;;;;;;;24.80;8.73;;;12.40;99.90;;;;;;5031074;28;20013;-82
2021/12/13 10:41:25;;;;;;;33.33;9.75;;;12.40;99.90;;;;;;5030940;28;20532;-81
2021/12/13 10:43:56;;;;;;;28.58;9.05;;;12.40;99.90;;;;;;5030707;28;20014;-81
2021/12/13 10:46:26;;;;;;;26.15;8.30;;;12.40;99.90;;;;;;5029898;28;20033;-76
2021/12/13 10:48:59;;;;;;;17.17;7.63;;;12.40;99.90;;;;;;5028892;28;20359;-82
2021/12/13 10:51:31;;;;;;;38.13;10.98;;;12.30;99.90;;;;;;5030402;28;20029;-80
2021/12/13 10:54:00;;;;;;;32.67;10.25;;;12.30;99.90;;;;;;5030525;28;20050;-81
2021/12/13 10:56:36;;;;;;;34.38;11.25;;;12.30;99.90;;;;;;5019159;28;20061;-81
2021/12/13 10:59:06;;;;;;;41.67;12.95;;;12.30;99.90;;;;;;5018531;28;20022;-76
2021/12/13 11:01:39;;;;;;;40.72;11.48;;;12.30;99.90;;;;;;5027102;28;20021;-80
2021/12/13 11:04:08;;;;;;;27.88;9.45;;;12.30;99.90;;;;;;5028671;28;20549;-82
2021/12/13 11:06:37;;;;;;;29.42;8.98;;;12.30;99.90;;;;;;5030078;28;20022;-83
2021/12/13 11:09:06;;;;;;;33.83;8.30;;;12.30;99.90;;;;;;5031000;28;20029;-80
2021/12/13 11:11:41;;;;;;;41.95;9.18;;;12.30;99.90;;;;;;5031905;28;20033;-77
2021/12/13 11:14:13;;;;;;;36.78;7.57;;;12.20;99.90;;;;;;5034121;28;20104;-78
2021/12/13 11:16:42;;;;;;;23.90;6.30;;;12.20;99.90;;;;;;5035441;28;20488;-77
2021/12/13 11:19:14;;;;;;;23.27;5.82;;;12.20;99.90;;;;;;5034474;28;20033;-75
2021/12/13 11:21:46;;;;;;;20.00;6.47;;;12.20;99.90;;;;;;5034396;28;20017;-79
2021/12/13 11:24:19;;;;;;;17.67;6.03;;;12.20;99.90;;;;;;5033723;28;20041;-76
2021/12/13 11:26:48;;;;;;;22.13;5.53;;;12.20;99.90;;;;;;5034318;28;20499;-80
2021/12/13 11:29:15;;;;;;;19.45;6.68;;;12.20;99.90;;;;;;5033635;28;20034;-79
2021/12/13 11:31:52;;;;;;;17.25;5.90;;;12.10;99.90;;;;;;5032714;28;21234;-81
2021/12/13 11:34:40;;;;;;;27.27;6.40;;;12.20;99.90;;;;;;5018196;28;20381;-78
2021/12/13 11:37:11;;;;;;;21.98;6.20;;;12.20;99.90;;;;;;5031333;28;20034;-83
2021/12/13 11:40:00;;;;;;;18.65;5.82;;;12.20;99.90;;;;;;5034307;28;20100;-82
2021/12/13 11:42:39;;;;;;;11.63;6.05;;;12.20;99.90;;;;;;5033857;28;20555;-81
2021/12/13 11:45:38;;;;;;;15.48;5.93;;;12.30;99.90;;;;;;5034724;28;20018;-76
2021/12/13 11:48:17;;;;;;;11.35;7.07;;;12.30;99.90;;;;;;5035809;28;20029;-81
2021/12/13 11:51:20;;;;;;;16.30;6.65;;;12.30;99.90;;;;;;5035622;28;20087;-81
2021/12/13 11:54:06;;;;;;;23.77;6.35;;;12.30;99.90;;;;;;5034255;28;20041;-79
2021/12/13 11:57:18;;;;;;;10.73;5.63;;;12.30;99.90;;;;;;5034733;28;20099;-83
2021/12/13 12:00:09;;;;;;;13.13;5.00;;;12.30;99.90;;;;;;5034431;28;20105;-82
2021/12/13 12:02:40;;;;;;;13.30;6.07;;;12.40;99.90;;;;;;5034286;28;20475;-80
2021/12/13 12:05:12;;;;;;;11.25;4.70;;;12.40;99.90;;;;;;5027908;28;20025;-83
2021/12/13 12:08:15;;;;;;;13.07;6.22;;;12.40;99.90;;;;;;5034461;28;20025;-80
2021/12/13 12:11:09;;;;;;;16.30;6.70;;;12.40;99.90;;;;;;5034961;28;20108;-80
2021/12/13 12:14:03;;;;;;;10.55;5.57;;;12.50;99.90;;;;;;5034397;28;20026;-78
2021/12/13 12:16:35;;;;;;;17.55;6.50;;;12.50;99.90;;;;;;5034894;28;20088;-83
2021/12/13 12:19:00;;;;;;;18.88;5.82;;;12.50;99.90;;;;;;5034940;28;20032;-81
2021/12/13 12:21:44;;;;;;;11.65;5.13;;;12.60;99.90;;;;;;5034065;28;20070;-83
2021/12/13 12:24:25;;;;;;;16.17;6.10;;;12.50;99.90;;;;;;5034664;28;20382;-82
2021/12/13 12:26:59;;;;;;;24.73;7.22;;;12.50;99.90;;;;;;5034270;28;20029;-79
2021/12/13 12:29:30;;;;;;;14.77;7.22;;;12.40;99.90;;;;;;5034378;28;20466;-78
2021/12/13 12:32:06;;;;;;;24.25;7.22;;;12.40;99.90;;;;;;5033839;28;20065;-80
2021/12/13 12:34:43;;;;;;;19.98;8.40;;;12.40;99.90;;;;;;5033451;28;20013;-81
2021/12/13 12:37:32;;;;;;;22.58;10.32;;;12.30;99.90;;;;;;5034013;28;20037;-81
2021/12/13 12:40:19;;;;;;;17.10;10.30;;;12.30;99.90;;;;;;5032377;28;20040;-80
2021/12/13 12:42:48;;;;;;;13.93;10.38;;;12.30;99.90;;;;;;5033976;28;20068;-75
2021/12/13 12:45:28;;;;;;;20.70;9.82;;;12.20;99.90;;;;;;5034092;28;20385;-81
2021/12/13 12:48:06;;;;;;;8.02;6.00;;;12.20;99.90;;;;;;5033953;28;20021;-75
2021/12/13 12:50:36;;;;;;;12.77;5.30;;;12.10;99.90;;;;;;5032120;28;20072;-81
2021/12/13 12:53:05;;;;;;;14.50;8.27;;;12.10;99.90;;;;;;5032652;28;20064;-82
2021/12/13 12:55:52;;;;;;;12.55;8.05;;;12.10;99.90;;;;;;5025354;28;20037;-78
2021/12/13 12:58:26;;;;;;;10.10;6.30;;;12.00;99.90;;;;;;5012769;28;20101;-78
2021/12/13 13:00:54;;;;;;;17.73;6.13;;;12.00;99.90;;;;;;5011020;28;20112;-74
2021/12/13 13:03:38;;;;;;;14.80;6.38;;;12.00;99.90;;;;;;5032913;28;20529;-73
2021/12/13 13:06:14;;;;;;;12.15;5.55;;;11.90;99.90;;;;;;5033486;28;20469;-80
2021/12/13 13:08:43;;;;;;;11.35;6.00;;;11.90;99.90;;;;;;5032549;28;20036;-80
2021/12/13 13:11:26;;;;;;;11.70;5.78;;;11.90;99.90;;;;;;5033379;28;20040;-73
2021/12/13 13:13:58;;;;;;;11.20;6.25;;;11.80;99.90;;;;;;5033196;28;20026;-78
2021/12/13 13:16:46;;;;;;;10.88;5.93;;;11.80;99.90;;;;;;5027166;28;20060;-73
2021/12/13 13:19:28;;;;;;;17.77;7.57;;;11.80;99.90;;;;;;5032957;28;20048;-79
2021/12/13 13:21:54;;;;;;;;;;;11.80;99.90;;;;;;5032208;28;20022;-77
2021/12/13 13:24:20;;;;;;;20.45;5.72;;;11.70;99.90;;;;;;5029684;28;20327;-83
2021/12/13 13:26:48;;;;;;;11.18;4.40;;;11.70;99.90;;;;;;5032484;28;20014;-76
2021/12/13 13:29:17;;;;;;;13.25;5.40;;;11.70;99.90;;;;;;5032494;28;20037;-82
2021/12/13 13:31:48;;;;;;;9.50;5.53;;;11.70;99.90;;;;;;5030281;28;20040;-84
2021/12/13 13:34:17;;;;;;;18.52;5.85;;;11.70;99.90;;;;;;5027736;28;20563;-73
2021/12/13 13:36:50;;;;;;;9.45;4.60;;;11.70;99.90;;;;;;5031719;28;20029;-73
2021/12/13 13:39:33;;;;;;;5.35;3.72;;;11.70;99.90;;;;;;5031840;28;20025;-72